Bay City, Michigan
Current Conditions -  °F | °C
As of 6:53 PM on Wednesday 22 Oct 2014 (Local Time) from KMBS Reporting Station
Overcast Overcast  
Wind Chill:   Ceiling: 2200
Heat Index:   Visibility: 10mi
Dew Point:   Wind: 3mph
Humidity: 68%   Direction: 50°NE
Pressure: 30.33"   Gusts: NA
Location:  43.6°N, 83.88°W
Report Text: KMBS 222253Z 05003KT 10SM OVC022 09/03 A3033 RMK AO2 SLP273 T00890033
Loading
Personal Weather Stations






























Interactive Weather Map
Tropical Storm Tracking
New forecast layout! Learn more

10-Day Weather Forecast

Advertisements
Track Severe Weather on mobile